createdAt,value
2017-08-28T00:00:12.140Z,64.10
2017-08-28T00:02:40.413Z,67.30
2017-08-28T00:05:08.658Z,67.70
2017-08-28T00:07:36.906Z,67.40
2017-08-28T00:10:05.182Z,67.00
2017-08-28T00:12:33.425Z,70.70
2017-08-28T00:15:01.680Z,70.10
2017-08-28T00:17:30.582Z,69.10
2017-08-28T00:19:58.834Z,67.10
2017-08-28T00:22:27.086Z,68.50
2017-08-28T00:24:55.357Z,69.60
2017-08-28T00:27:23.622Z,71.40
2017-08-28T00:29:52.634Z,69.60
2017-08-28T00:32:20.914Z,69.50
2017-08-28T00:34:49.161Z,66.20
2017-08-28T00:37:18.178Z,63.70
2017-08-28T00:39:46.782Z,63.60
2017-08-28T00:42:15.022Z,63.50
2017-08-28T00:44:43.262Z,63.30
2017-08-28T00:47:11.528Z,63.60
2017-08-28T00:49:40.118Z,63.50
2017-08-28T00:52:08.361Z,64.00
2017-08-28T00:54:36.630Z,64.40
2017-08-28T00:57:04.870Z,65.80
2017-08-28T00:59:33.115Z,64.80
2017-08-28T01:02:01.881Z,66.80
2017-08-28T01:04:30.122Z,64.50
2017-08-28T01:06:58.369Z,65.60
2017-08-28T01:09:26.634Z,65.80
2017-08-28T01:11:54.881Z,64.90
2017-08-28T01:14:23.126Z,65.40
2017-08-28T01:16:52.190Z,66.70
2017-08-28T01:19:21.190Z,65.60
2017-08-28T01:21:49.434Z,65.60
2017-08-28T01:24:18.219Z,65.40
2017-08-28T01:26:46.517Z,65.40
2017-08-28T01:29:14.767Z,65.70
2017-08-28T01:31:43.033Z,64.80
2017-08-28T01:34:11.281Z,65.60
2017-08-28T01:36:39.525Z,65.00
2017-08-28T01:39:07.789Z,66.00
2017-08-28T01:41:36.018Z,65.60
2017-08-28T01:44:05.025Z,64.30
2017-08-28T01:46:33.399Z,64.30
2017-08-28T01:49:01.643Z,65.00
2017-08-28T01:51:30.244Z,63.70
2017-08-28T01:53:58.509Z,63.40
2017-08-28T01:56:26.749Z,63.10
2017-08-28T01:58:54.990Z,63.20
2017-08-28T02:01:23.262Z,63.30
2017-08-28T02:03:51.503Z,62.80
2017-08-28T02:06:19.970Z,62.50
2017-08-28T02:08:48.725Z,63.50
2017-08-28T02:11:16.973Z,63.00
2017-08-28T02:13:45.214Z,65.00
2017-08-28T02:16:13.509Z,64.40
2017-08-28T02:18:41.753Z,65.10
2017-08-28T02:21:09.998Z,66.00
2017-08-28T02:23:38.350Z,66.00
2017-08-28T02:26:07.362Z,67.10
2017-08-28T02:28:36.366Z,71.00
2017-08-28T02:31:04.686Z,71.00
2017-08-28T02:33:32.938Z,69.30
2017-08-28T02:36:01.185Z,73.60
2017-08-28T02:38:29.441Z,68.50
2017-08-28T02:40:57.678Z,66.80
2017-08-28T02:43:25.918Z,66.80
2017-08-28T02:45:54.185Z,67.80
2017-08-28T02:48:22.423Z,68.90
2017-08-28T02:50:50.663Z,71.50
2017-08-28T02:53:19.330Z,68.70
2017-08-28T02:55:47.574Z,67.80
2017-08-28T02:58:15.818Z,66.90
2017-08-28T03:00:44.081Z,67.60
2017-08-28T03:03:12.330Z,67.40
2017-08-28T03:05:40.594Z,68.70
2017-08-28T03:08:08.866Z,69.90
2017-08-28T03:10:37.106Z,68.50
2017-08-28T03:13:05.346Z,69.50
2017-08-28T03:15:34.042Z,69.20
2017-08-28T03:18:02.277Z,69.50
2017-08-28T03:20:30.518Z,70.40
2017-08-28T03:22:58.787Z,67.80
2017-08-28T03:25:27.028Z,69.00
2017-08-28T03:27:55.274Z,68.40
2017-08-28T03:30:24.311Z,70.90
2017-08-28T03:32:52.554Z,70.60
2017-08-28T03:35:20.793Z,70.00
2017-08-28T03:37:49.109Z,70.40
2017-08-28T03:40:17.354Z,70.10
2017-08-28T03:42:45.603Z,69.80
2017-08-28T03:45:13.871Z,70.10
2017-08-28T03:47:42.126Z,71.90
2017-08-28T03:50:10.368Z,73.70
2017-08-28T03:52:38.754Z,71.70
2017-08-28T03:55:07.446Z,73.40
2017-08-28T03:57:36.470Z,72.00
2017-08-28T04:00:04.956Z,72.00
2017-08-28T04:02:33.224Z,70.40
2017-08-28T04:05:01.454Z,72.90
2017-08-28T04:07:29.998Z,72.40
2017-08-28T04:09:58.233Z,74.30
2017-08-28T04:12:27.246Z,73.00
2017-08-28T04:14:55.505Z,73.00
2017-08-28T04:17:23.750Z,72.60
2017-08-28T04:19:51.993Z,76.90
2017-08-28T04:22:20.627Z,75.80
2017-08-28T04:24:48.886Z,76.40
2017-08-28T04:27:17.134Z,76.30
2017-08-28T04:29:45.398Z,75.70
2017-08-28T04:32:13.638Z,77.50
2017-08-28T04:34:41.891Z,74.80
2017-08-28T04:37:10.156Z,73.40
2017-08-28T04:39:38.403Z,78.20
2017-08-28T04:42:06.662Z,76.90
2017-08-28T04:44:35.378Z,78.70
2017-08-28T04:47:03.626Z,78.00
2017-08-28T04:49:31.866Z,75.40
2017-08-28T04:52:00.130Z,76.10
2017-08-28T04:54:28.380Z,76.50
2017-08-28T04:56:56.926Z,76.40
2017-08-28T04:59:25.202Z,75.50
2017-08-28T05:01:53.445Z,76.70
2017-08-28T05:04:21.695Z,75.80
2017-08-28T05:06:51.397Z,77.60
2017-08-28T05:09:19.650Z,75.00
2017-08-28T05:11:47.886Z,74.20
2017-08-28T05:14:16.173Z,76.40
2017-08-28T05:16:44.419Z,76.40
2017-08-28T05:19:12.666Z,76.30
2017-08-28T05:21:40.936Z,75.90
2017-08-28T05:24:09.178Z,76.00
2017-08-28T05:26:37.421Z,75.50
2017-08-28T05:29:05.914Z,75.60
2017-08-28T05:31:34.221Z,76.20
2017-08-28T05:34:04.257Z,75.40
2017-08-28T05:36:33.774Z,74.30
2017-08-28T05:39:04.727Z,75.50
2017-08-28T05:41:33.353Z,74.60
2017-08-28T05:44:01.691Z,74.60
2017-08-28T05:46:29.965Z,73.30
2017-08-28T05:48:58.194Z,73.70
2017-08-28T05:51:26.829Z,71.30
2017-08-28T05:53:57.183Z,71.70
2017-08-28T05:56:25.942Z,72.00
2017-08-28T05:58:54.410Z,71.70
2017-08-28T06:01:23.750Z,70.50
2017-08-28T06:03:51.995Z,70.30
2017-08-28T06:06:20.254Z,70.00
2017-08-28T06:08:48.495Z,70.60
2017-08-28T06:11:16.760Z,69.00
2017-08-28T06:13:45.622Z,69.30
2017-08-28T06:16:13.862Z,68.30
2017-08-28T06:18:42.102Z,67.60
2017-08-28T06:21:13.926Z,67.50
2017-08-28T06:23:42.216Z,67.20
2017-08-28T06:26:12.376Z,67.20
2017-08-28T06:28:40.625Z,65.60
2017-08-28T06:31:12.814Z,63.90
2017-08-28T06:33:42.482Z,63.90
2017-08-28T06:36:11.708Z,64.20
2017-08-28T06:38:39.953Z,64.20
2017-08-28T06:41:08.227Z,63.40
2017-08-28T06:43:36.563Z,64.10
2017-08-28T06:46:05.580Z,64.60
2017-08-28T06:48:34.597Z,65.50
2017-08-28T06:51:02.851Z,65.40
2017-08-28T06:53:31.090Z,65.70
2017-08-28T06:56:01.176Z,65.20
2017-08-28T06:58:29.782Z,65.80
2017-08-28T07:00:58.134Z,66.00
2017-08-28T07:03:26.405Z,64.90
2017-08-28T07:05:54.642Z,64.30
2017-08-28T07:08:23.390Z,63.90
2017-08-28T07:10:51.650Z,64.00
2017-08-28T07:13:19.889Z,63.60
2017-08-28T07:15:48.227Z,62.80
2017-08-28T07:18:16.986Z,63.00
2017-08-28T07:20:46.746Z,62.20
2017-08-28T07:23:15.826Z,61.50
2017-08-28T07:25:44.119Z,61.50
2017-08-28T07:28:18.619Z,61.80
2017-08-28T07:30:48.087Z,62.20
2017-08-28T07:33:16.330Z,61.40
2017-08-28T07:35:44.565Z,61.00
2017-08-28T07:38:13.437Z,60.70
2017-08-28T07:40:42.288Z,60.10
2017-08-28T07:43:12.122Z,58.50
2017-08-28T07:45:40.968Z,58.50
2017-08-28T07:48:09.205Z,58.30
2017-08-28T07:50:38.697Z,57.10
2017-08-28T07:53:06.978Z,57.10
2017-08-28T07:55:35.225Z,56.30
2017-08-28T07:58:03.457Z,56.10
2017-08-28T08:00:32.026Z,56.10
2017-08-28T08:03:01.717Z,55.90
2017-08-28T08:05:29.941Z,56.30
2017-08-28T08:07:58.208Z,56.70
2017-08-28T08:10:26.442Z,56.40
2017-08-28T08:12:54.682Z,56.50
2017-08-28T08:15:22.959Z,56.50
2017-08-28T08:17:51.194Z,56.40
2017-08-28T08:20:19.434Z,57.10
2017-08-28T08:22:47.746Z,56.60
2017-08-28T08:25:15.990Z,56.50
2017-08-28T08:27:44.222Z,56.50
2017-08-28T08:30:12.497Z,56.70
2017-08-28T08:32:40.741Z,57.10
2017-08-28T08:35:08.980Z,57.30
2017-08-28T08:37:37.526Z,57.50
2017-08-28T08:40:05.766Z,56.60
2017-08-28T08:42:35.133Z,56.40
2017-08-28T08:45:03.563Z,56.60
2017-08-28T08:47:31.799Z,56.70
2017-08-28T08:50:00.802Z,56.90
2017-08-28T08:52:29.150Z,56.90
2017-08-28T08:54:57.393Z,56.70
2017-08-28T08:57:25.643Z,56.60
2017-08-28T08:59:53.959Z,56.30
2017-08-28T09:02:22.198Z,56.40
2017-08-28T09:04:51.674Z,56.30
2017-08-28T09:07:20.999Z,56.60
2017-08-28T09:09:49.250Z,55.90
2017-08-28T09:12:17.494Z,55.80
2017-08-28T09:14:45.759Z,55.60
2017-08-28T09:17:14.153Z,56.00
2017-08-28T09:19:42.434Z,55.50
2017-08-28T09:22:10.690Z,55.70
2017-08-28T09:24:38.935Z,55.80
2017-08-28T09:27:07.358Z,55.70
2017-08-28T09:29:35.917Z,56.00
2017-08-28T09:32:04.159Z,55.20
2017-08-28T09:34:36.769Z,55.30
2017-08-28T09:37:05.822Z,55.30
2017-08-28T09:39:34.830Z,54.70
2017-08-28T09:42:04.804Z,54.60
2017-08-28T09:44:34.154Z,53.90
2017-08-28T09:47:02.393Z,54.20
2017-08-28T09:49:30.630Z,53.90
2017-08-28T09:52:01.674Z,54.00
2017-08-28T09:54:30.126Z,54.20
2017-08-28T09:56:58.357Z,53.40
2017-08-28T09:59:26.626Z,53.10
2017-08-28T10:01:54.862Z,52.70
2017-08-28T10:04:23.106Z,53.00
2017-08-28T10:06:51.630Z,53.20
2017-08-28T10:09:19.874Z,52.70
2017-08-28T10:11:48.311Z,53.40
2017-08-28T10:14:16.634Z,53.10
2017-08-28T10:16:44.877Z,52.40
2017-08-28T10:19:13.122Z,52.70
2017-08-28T10:21:41.386Z,52.60
2017-08-28T10:24:09.625Z,51.80
2017-08-28T10:26:37.365Z,52.60
2017-08-28T10:29:05.954Z,52.30
2017-08-28T10:31:34.185Z,51.60
2017-08-28T10:34:02.455Z,51.90
2017-08-28T10:36:30.977Z,52.00
2017-08-28T10:38:59.238Z,50.90
2017-08-28T10:41:28.015Z,50.80
2017-08-28T10:43:56.281Z,50.60
2017-08-28T10:46:24.530Z,47.30
2017-08-28T10:48:52.862Z,46.70
2017-08-28T10:51:21.114Z,43.00
2017-08-28T10:53:49.357Z,40.80
2017-08-28T10:56:17.598Z,40.50
2017-08-28T10:58:52.245Z,38.60
2017-08-28T11:01:20.488Z,36.30
2017-08-28T11:03:48.726Z,38.20
2017-08-28T11:06:17.003Z,37.30
2017-08-28T11:08:47.830Z,34.60
2017-08-28T11:11:16.420Z,34.70
2017-08-28T11:13:44.674Z,35.50
2017-08-28T11:16:13.669Z,35.50
2017-08-28T11:18:42.998Z,33.20
2017-08-28T11:21:14.069Z,33.10
2017-08-28T11:23:44.145Z,32.20
2017-08-28T11:26:12.390Z,33.90
2017-08-28T11:28:40.666Z,34.20
2017-08-28T11:31:09.051Z,34.90
2017-08-28T11:33:38.214Z,32.50
2017-08-28T11:36:06.479Z,31.40
2017-08-28T11:38:35.455Z,32.40
2017-08-28T11:41:03.699Z,31.10
2017-08-28T11:43:32.238Z,32.20
2017-08-28T11:46:00.482Z,28.80
2017-08-28T11:48:28.726Z,29.90
2017-08-28T11:50:56.989Z,29.90
2017-08-28T11:53:25.374Z,31.60
2017-08-28T11:55:53.610Z,29.00
2017-08-28T11:58:21.890Z,28.90
2017-08-28T12:00:50.134Z,28.60
2017-08-28T12:03:20.767Z,28.10
2017-08-28T12:05:49.078Z,28.10
2017-08-28T12:08:17.429Z,27.40
2017-08-28T12:10:46.669Z,29.10
2017-08-28T12:13:14.926Z,30.50
2017-08-28T12:15:43.283Z,31.50
2017-08-28T12:18:12.282Z,32.90
2017-08-28T12:20:40.554Z,32.90
2017-08-28T12:23:08.794Z,31.90
2017-08-28T12:25:39.416Z,31.70
2017-08-28T12:28:07.750Z,29.10
2017-08-28T12:30:36.171Z,28.60
2017-08-28T12:33:04.390Z,26.00
2017-08-28T12:35:33.426Z,26.50
2017-08-28T12:38:01.712Z,26.50
2017-08-28T12:40:29.950Z,26.50
2017-08-28T12:42:58.209Z,26.30
2017-08-28T12:45:27.225Z,26.00
2017-08-28T12:47:55.470Z,26.00
2017-08-28T12:50:24.005Z,26.20
2017-08-28T12:52:52.343Z,26.50
2017-08-28T12:55:20.782Z,24.50
2017-08-28T12:57:49.026Z,26.60
2017-08-28T13:00:17.446Z,26.00
2017-08-28T13:02:45.698Z,25.80
2017-08-28T13:05:13.950Z,23.30
2017-08-28T13:07:42.198Z,24.70
2017-08-28T13:10:11.204Z,24.90
2017-08-28T13:12:40.090Z,24.90
2017-08-28T13:15:08.333Z,24.90
2017-08-28T13:17:36.590Z,23.90
2017-08-28T13:20:04.846Z,23.50
2017-08-28T13:22:33.082Z,24.60
2017-08-28T13:25:01.531Z,23.50
2017-08-28T13:27:29.936Z,23.90
2017-08-28T13:29:58.238Z,22.80
2017-08-28T13:32:26.459Z,23.70
2017-08-28T13:34:54.805Z,22.60
2017-08-28T13:37:23.051Z,23.60
2017-08-28T13:39:51.293Z,22.70
2017-08-28T13:42:20.534Z,22.80
2017-08-28T13:44:49.538Z,20.90
2017-08-28T13:47:17.775Z,20.90
2017-08-28T13:49:46.146Z,23.00
2017-08-28T13:52:15.543Z,24.10
2017-08-28T13:54:45.254Z,23.40
2017-08-28T13:57:13.929Z,23.30
2017-08-28T13:59:42.174Z,23.40
2017-08-28T14:02:10.410Z,22.90
2017-08-28T14:04:38.698Z,23.20
2017-08-28T14:07:07.704Z,23.30
2017-08-28T14:09:37.886Z,23.40
2017-08-28T14:12:06.142Z,23.10
2017-08-28T14:14:35.254Z,22.60
2017-08-28T14:17:03.495Z,20.90
2017-08-28T14:19:32.077Z,23.00
2017-08-28T14:22:00.414Z,22.50
2017-08-28T14:24:28.650Z,22.80
2017-08-28T14:26:57.673Z,20.90
2017-08-28T14:29:26.142Z,20.90
2017-08-28T14:31:54.381Z,21.80
2017-08-28T14:34:23.862Z,21.00
2017-08-28T14:36:52.864Z,22.90
2017-08-28T14:39:21.861Z,23.50
2017-08-28T14:41:50.305Z,23.50
2017-08-28T14:44:18.887Z,23.30
2017-08-28T14:46:47.252Z,22.90
2017-08-28T14:49:15.670Z,24.40
2017-08-28T14:51:44.011Z,24.50
2017-08-28T14:54:12.388Z,24.00
2017-08-28T14:56:40.790Z,24.80
2017-08-28T14:59:09.170Z,26.20
2017-08-28T15:01:38.447Z,25.60
2017-08-28T15:04:06.911Z,23.40
2017-08-28T15:06:35.205Z,23.10
2017-08-28T15:09:03.586Z,23.20
2017-08-28T15:11:32.173Z,22.90
2017-08-28T15:14:00.394Z,23.20
2017-08-28T15:16:29.041Z,22.60
2017-08-28T15:18:57.438Z,22.20
2017-08-28T15:21:25.800Z,21.90
2017-08-28T15:23:54.173Z,22.30
2017-08-28T15:26:23.859Z,22.00
2017-08-28T15:28:52.099Z,22.80
2017-08-28T15:31:21.451Z,22.20
2017-08-28T15:33:50.050Z,23.10
2017-08-28T15:36:18.270Z,23.30
2017-08-28T15:38:46.588Z,21.80
2017-08-28T15:41:14.860Z,21.90
2017-08-28T15:43:43.114Z,21.80
2017-08-28T15:46:11.729Z,22.10
2017-08-28T15:48:40.047Z,22.30
2017-08-28T15:51:08.494Z,21.50
2017-08-28T15:53:36.861Z,22.10
2017-08-28T15:56:08.347Z,21.20
2017-08-28T15:58:37.351Z,22.40
2017-08-28T16:01:06.614Z,21.80
2017-08-28T16:03:35.022Z,21.30
2017-08-28T16:06:03.366Z,22.30
2017-08-28T16:08:32.670Z,22.50
2017-08-28T16:11:01.257Z,22.00
2017-08-28T16:13:29.483Z,22.30
2017-08-28T16:15:57.717Z,21.70
2017-08-28T16:18:27.307Z,21.90
2017-08-28T16:20:55.528Z,22.60
2017-08-28T16:23:23.766Z,22.90
2017-08-28T16:25:52.033Z,22.90
2017-08-28T16:28:20.310Z,22.30
2017-08-28T16:30:48.697Z,23.20
2017-08-28T16:33:17.449Z,23.30
2017-08-28T16:35:45.753Z,23.20
2017-08-28T16:38:14.133Z,23.40
2017-08-28T16:40:42.542Z,23.00
2017-08-28T16:43:10.894Z,22.80
2017-08-28T16:45:39.477Z,23.00
2017-08-28T16:48:07.717Z,22.60
2017-08-28T16:50:36.858Z,23.20
2017-08-28T16:53:05.099Z,23.30
2017-08-28T16:55:33.430Z,23.40
2017-08-28T16:58:01.672Z,23.20
2017-08-28T17:00:29.911Z,23.50
2017-08-28T17:02:58.254Z,23.40
2017-08-28T17:05:26.486Z,23.70
2017-08-28T17:07:54.746Z,23.70
2017-08-28T17:10:22.995Z,23.80
2017-08-28T17:12:51.438Z,24.40
2017-08-28T17:15:19.715Z,23.90
2017-08-28T17:17:48.079Z,24.20
2017-08-28T17:20:16.783Z,24.80
2017-08-28T17:22:46.942Z,25.70
2017-08-28T17:25:15.210Z,26.10
2017-08-28T17:27:43.454Z,26.70
2017-08-28T17:30:11.690Z,27.40
2017-08-28T17:32:39.949Z,27.50
2017-08-28T17:35:08.198Z,28.10
2017-08-28T17:37:36.469Z,28.20
2017-08-28T17:40:04.974Z,29.00
2017-08-28T17:42:33.219Z,28.90
2017-08-28T17:45:01.462Z,29.00
2017-08-28T17:47:29.729Z,29.30
2017-08-28T17:49:57.976Z,29.40
2017-08-28T17:52:26.202Z,29.50
2017-08-28T17:54:54.513Z,29.90
2017-08-28T17:57:22.882Z,29.90
2017-08-28T17:59:51.271Z,29.90
2017-08-28T18:02:20.030Z,30.00
2017-08-28T18:04:48.321Z,30.20
2017-08-28T18:07:17.258Z,30.30
2017-08-28T18:09:45.530Z,30.60
2017-08-28T18:12:13.772Z,30.90
2017-08-28T18:14:42.014Z,31.50
2017-08-28T18:17:11.470Z,31.30
2017-08-28T18:19:39.819Z,31.50
2017-08-28T18:22:08.238Z,31.70
2017-08-28T18:24:36.730Z,31.80
2017-08-28T18:27:06.395Z,31.80
2017-08-28T18:29:39.686Z,32.10
2017-08-28T18:32:08.130Z,32.50
2017-08-28T18:34:36.370Z,32.30
2017-08-28T18:37:04.650Z,32.40
2017-08-28T18:39:32.901Z,32.70
2017-08-28T18:42:02.314Z,32.20
2017-08-28T18:44:30.610Z,32.50
2017-08-28T18:46:59.150Z,32.70
2017-08-28T18:49:27.383Z,32.50
2017-08-28T18:51:55.646Z,32.50
2017-08-28T18:54:23.887Z,32.90
2017-08-28T18:56:52.122Z,32.60
2017-08-28T18:59:20.395Z,32.70
2017-08-28T19:01:48.714Z,32.90
2017-08-28T19:04:17.666Z,33.00
2017-08-28T19:06:45.990Z,33.10
2017-08-28T19:09:15.390Z,34.70
2017-08-28T19:11:43.778Z,35.30
2017-08-28T19:14:16.170Z,35.60
2017-08-28T19:16:45.194Z,37.30
2017-08-28T19:19:13.438Z,37.30
2017-08-28T19:21:41.709Z,37.60
2017-08-28T19:24:10.780Z,37.50
2017-08-28T19:26:39.014Z,37.30
2017-08-28T19:29:07.536Z,37.00
2017-08-28T19:31:35.774Z,37.30
2017-08-28T19:34:08.130Z,37.60
2017-08-28T19:36:36.467Z,38.00
2017-08-28T19:39:04.705Z,38.30
2017-08-28T19:41:32.981Z,38.40
2017-08-28T19:44:01.225Z,38.50
2017-08-28T19:46:29.472Z,38.20
2017-08-28T19:48:57.853Z,39.30
2017-08-28T19:51:26.103Z,39.10
2017-08-28T19:53:54.342Z,38.70
2017-08-28T19:56:22.616Z,39.30
2017-08-28T19:58:50.958Z,38.80
2017-08-28T20:01:19.535Z,39.10
2017-08-28T20:03:47.798Z,40.40
2017-08-28T20:06:16.242Z,40.70
2017-08-28T20:08:44.466Z,42.20
2017-08-28T20:11:13.315Z,42.10
2017-08-28T20:13:41.538Z,40.70
2017-08-28T20:16:09.781Z,41.50
2017-08-28T20:18:38.084Z,41.00
2017-08-28T20:21:06.395Z,41.40
2017-08-28T20:23:35.458Z,41.60
2017-08-28T20:26:04.066Z,41.50
2017-08-28T20:28:33.350Z,41.80
2017-08-28T20:31:02.766Z,42.00
2017-08-28T20:33:31.476Z,42.30
2017-08-28T20:35:59.710Z,42.50
2017-08-28T20:38:27.957Z,42.80
2017-08-28T20:40:56.222Z,43.00
2017-08-28T20:43:24.467Z,43.20
2017-08-28T20:45:52.812Z,44.10
2017-08-28T20:48:22.432Z,44.90
2017-08-28T20:50:50.667Z,46.70
2017-08-28T20:53:18.909Z,47.00
2017-08-28T20:55:47.434Z,45.60
2017-08-28T20:58:15.675Z,45.60
2017-08-28T21:00:44.127Z,45.60
2017-08-28T21:03:12.386Z,45.50
2017-08-28T21:05:40.627Z,45.80
2017-08-28T21:08:08.878Z,46.10
2017-08-28T21:10:37.146Z,46.90
2017-08-28T21:13:05.390Z,46.60
2017-08-28T21:15:33.630Z,47.10
2017-08-28T21:18:02.234Z,46.60
2017-08-28T21:20:30.482Z,47.10
2017-08-28T21:22:59.486Z,46.80
2017-08-28T21:25:27.757Z,46.80
2017-08-28T21:27:56.958Z,47.50
2017-08-28T21:30:25.202Z,47.30
2017-08-28T21:32:53.476Z,48.10
2017-08-28T21:35:21.721Z,48.80
2017-08-28T21:37:49.966Z,48.60
2017-08-28T21:40:18.562Z,48.80
2017-08-28T21:42:46.806Z,47.80
2017-08-28T21:45:15.045Z,49.00
2017-08-28T21:47:43.314Z,48.90
2017-08-28T21:50:11.689Z,48.60
2017-08-28T21:52:39.933Z,49.00
2017-08-28T21:55:08.198Z,48.30
2017-08-28T21:57:36.450Z,48.70
2017-08-28T22:00:04.702Z,49.50
2017-08-28T22:02:33.186Z,49.40
2017-08-28T22:05:01.430Z,48.80
2017-08-28T22:07:29.678Z,49.90
2017-08-28T22:09:57.941Z,50.00
2017-08-28T22:12:26.194Z,49.40
2017-08-28T22:14:54.438Z,50.20
2017-08-28T22:17:22.704Z,50.00
2017-08-28T22:19:50.946Z,50.30
2017-08-28T22:22:19.190Z,50.10
2017-08-28T22:24:47.805Z,50.40
2017-08-28T22:27:16.814Z,51.20
2017-08-28T22:29:45.482Z,51.10
2017-08-28T22:32:14.522Z,51.40
2017-08-28T22:34:42.762Z,51.40
2017-08-28T22:37:11.006Z,50.10
2017-08-28T22:39:39.279Z,51.90
2017-08-28T22:42:07.523Z,53.00
2017-08-28T22:44:35.775Z,52.90
2017-08-28T22:47:05.062Z,52.60
2017-08-28T22:49:34.078Z,51.60
2017-08-28T22:52:02.322Z,51.60
2017-08-28T22:54:30.597Z,51.50
2017-08-28T22:56:58.843Z,51.90
2017-08-28T22:59:27.082Z,51.60
2017-08-28T23:01:55.349Z,52.90
2017-08-28T23:04:23.670Z,51.80
2017-08-28T23:06:51.909Z,51.60
2017-08-28T23:09:20.223Z,51.90
2017-08-28T23:11:48.469Z,51.70
2017-08-28T23:14:16.894Z,52.40
2017-08-28T23:16:45.157Z,52.00
2017-08-28T23:19:13.398Z,52.80
2017-08-28T23:21:41.637Z,53.40
2017-08-28T23:24:09.918Z,52.90
2017-08-28T23:26:38.926Z,52.00
2017-08-28T23:29:07.186Z,52.10
2017-08-28T23:31:35.937Z,53.40
2017-08-28T23:34:04.181Z,53.80
2017-08-28T23:36:32.430Z,53.60
2017-08-28T23:39:00.694Z,53.50
2017-08-28T23:41:28.925Z,52.70
2017-08-28T23:43:57.183Z,54.70
2017-08-28T23:46:25.530Z,54.60
2017-08-28T23:48:53.770Z,55.10
2017-08-28T23:51:22.032Z,53.70
2017-08-28T23:53:50.678Z,53.60
2017-08-28T23:56:19.691Z,54.10
2017-08-28T23:58:47.946Z,54.10
